This is the latest recevied weather packets stored in our database for station/object DH4SBM. If no packets are shown the sender has not sent any weather packets the latest 10 day(s).
| Time | Temp. | Humidity | Pressure | Rain* | Wind** | Luminosity | Snow |
|---|---|---|---|---|---|---|---|
| 1787890623 | 20.56° C | 86% | 1011.9 hPa | 0.25 mm | - | 0 W/m² | - |
| 1787890023 | 21.67° C | 83% | 1011.2 hPa | 0.25 mm | - | 0 W/m² | - |
| 1787889423 | 22.78° C | 78% | 1012.3 hPa | 0 mm | - | 0 W/m² | - |
| 1787888823 | 22.78° C | 78% | 1009 hPa | 0 mm | - | 0 W/m² | - |
| 1787888223 | 22.22° C | 78% | 1008.9 hPa | 0 mm | - | 0 W/m² | - |
| 1787887623 | 22.78° C | 77% | 1009.4 hPa | 0 mm | - | 0 W/m² | - |
| 1787887023 | 22.78° C | 77% | 1009.3 hPa | 0 mm | - | 0 W/m² | - |
| 1787886422 | 22.78° C | 77% | 1009.4 hPa | 0 mm | - | 0 W/m² | - |
| 1787885823 | 22.78° C | 77% | 1009.5 hPa | 0 mm | - | 0 W/m² | - |
| 1787885223 | 22.78° C | 77% | 1010 hPa | 0 mm | - | 0 W/m² | - |
| 1787884623 | 22.78° C | 76% | 1010.1 hPa | 0 mm | - | 0 W/m² | - |
| 1787884023 | 23.33° C | 76% | 1010.6 hPa | 0 mm | - | 0 W/m² | - |
| 1787883423 | 23.33° C | 75% | 1010.5 hPa | 0 mm | - | 0 W/m² | - |
| 1787882822 | 23.33° C | 73% | 1010.6 hPa | 0 mm | - | 0 W/m² | - |
| 1787882223 | 23.89° C | 72% | 1010.5 hPa | 0 mm | - | 0 W/m² | - |
| 1787881622 | 23.89° C | 72% | 1010.4 hPa | 0 mm | - | 0 W/m² | - |
| 1787881022 | 24.44° C | 71% | 1010.4 hPa | 0 mm | - | 0 W/m² | - |
| 1787880422 | 24.44° C | 69% | 1010.3 hPa | 0 mm | - | 0 W/m² | - |
| 1787879823 | 25° C | 66% | 1010.5 hPa | 0 mm | - | 0 W/m² | - |
| 1787879222 | 25° C | 65% | 1010.3 hPa | 0 mm | - | 0 W/m² | - |
| 1787878622 | 25.56° C | 65% | 1010.4 hPa | 0 mm | - | 0 W/m² | - |
| 1787878022 | 25.56° C | 64% | 1010.7 hPa | 0 mm | - | 0 W/m² | - |
| 1787877422 | 26.11° C | 63% | 1010.5 hPa | 0 mm | - | 0 W/m² | - |
| 1787876822 | 26.11° C | 65% | 1010.5 hPa | 0 mm | - | 0 W/m² | - |
| 1787876222 | 26.11° C | 65% | 1009.4 hPa | 0 mm | - | 0 W/m² | - |
* Rain latest hour (hover to see other rain measurements)
** Current wind speed in m/s (hover to see current wind gust speed)